Time;durP1;ratioP1;P1;durP2;ratioP2;P2;SDS_P1;SDS_P2;PMS_P1;PMS_P2;Temp;Humidity;BMP_temperature;BMP_pressure;BME280_temperature;BME280_humidity;BME280_pressure;Samples;Min_cycle;Max_cycle;Signal;HPM_P1;HPM_P2
2022/12/24 00:00:38;;;;;;;39.72;12.98;;;2.20;99.90;;;0.44;100.00;100134.59;5007285;28;20034;-78
2022/12/24 00:03:04;;;;;;;36.25;12.73;;;2.10;99.90;;;0.38;100.00;100130.34;5008048;28;20034;-78
2022/12/24 00:05:30;;;;;;;36.83;12.63;;;2.10;99.90;;;0.33;100.00;100133.88;5007379;28;20029;-78
2022/12/24 00:07:56;;;;;;;35.00;12.82;;;2.00;99.90;;;0.29;100.00;100133.06;5005117;28;20034;-78
2022/12/24 00:10:22;;;;;;;38.75;12.23;;;2.00;99.90;;;0.25;100.00;100138.31;5010741;28;20084;-79
2022/12/24 00:12:48;;;;;;;36.55;12.50;;;1.90;99.90;;;0.19;100.00;100134.06;5008374;28;20116;-78
2022/12/24 00:15:18;;;;;;;37.92;14.23;;;1.90;99.90;;;0.13;100.00;100124.66;5011307;28;20112;-78
2022/12/24 00:17:44;;;;;;;33.17;12.65;;;1.80;99.90;;;0.08;100.00;100130.75;5009291;28;20494;-78
2022/12/24 00:20:10;;;;;;;57.03;14.88;;;1.80;99.90;;;0.04;100.00;100132.53;5023823;23;20052;-80
2022/12/24 00:22:36;;;;;;;28.20;12.15;;;1.70;99.90;;;-0.02;100.00;100124.88;5007901;28;20397;-80
2022/12/24 00:25:02;;;;;;;47.88;14.35;;;1.60;99.90;;;-0.06;100.00;100121.44;5010585;28;20081;-80
2022/12/24 00:27:28;;;;;;;57.03;15.60;;;1.60;99.90;;;-0.12;100.00;100125.84;5022607;28;20033;-80
2022/12/24 00:29:58;;;;;;;48.08;13.95;;;1.60;99.90;;;-0.19;100.00;100119.03;5024612;28;20124;-79
2022/12/24 00:32:24;;;;;;;40.15;13.93;;;1.50;99.90;;;-0.23;100.00;100119.06;5026209;28;20033;-80
2022/12/24 00:34:50;;;;;;;45.97;13.73;;;1.50;99.90;;;-0.28;100.00;100123.44;4995561;28;20120;-80
2022/12/24 00:37:15;;;;;;;32.38;12.57;;;1.40;99.90;;;-0.31;100.00;100126.06;5031461;28;20574;-80
2022/12/24 00:39:41;;;;;;;42.38;12.82;;;1.40;99.90;;;-0.34;100.00;100122.66;5010998;28;20060;-80
2022/12/24 00:42:07;;;;;;;39.95;13.02;;;1.40;99.90;;;-0.38;100.00;100124.44;5005058;28;20095;-81
2022/12/24 00:44:40;;;;;;;40.70;12.63;;;1.30;99.90;;;-0.42;100.00;100128.75;5009281;28;20104;-80
2022/12/24 00:47:05;;;;;;;54.90;13.40;;;1.30;99.90;;;-0.46;100.00;100131.41;5013318;28;20033;-81
2022/12/24 00:49:31;;;;;;;48.97;13.45;;;1.30;99.90;;;-0.51;100.00;100128.03;5013453;28;20034;-79
2022/12/24 00:51:57;;;;;;;40.03;13.48;;;1.20;99.90;;;-0.56;100.00;100128.09;5009064;28;20096;-81
2022/12/24 00:54:23;;;;;;;43.67;12.32;;;1.20;99.90;;;-0.55;100.00;100134.09;5010780;28;20559;-79
2022/12/24 00:56:58;;;;;;;48.40;13.23;;;1.20;99.90;;;-0.56;100.00;100135.84;5009811;28;20482;-80
2022/12/24 00:59:24;;;;;;;41.95;12.45;;;1.10;99.90;;;-0.63;100.00;100142.81;5010299;28;20054;-81
2022/12/24 01:01:50;;;;;;;42.53;12.55;;;1.10;99.90;;;-0.67;100.00;100138.53;4997149;28;20039;-80
2022/12/24 01:07:00;;;;;;;43.58;11.70;;;1.00;99.90;;;-0.74;100.00;100142.03;5027932;28;20121;-81
2022/12/24 01:09:28;;;;;;;37.42;10.68;;;1.00;99.90;;;-0.78;100.00;100147.25;5010521;28;20034;-81
2022/12/24 01:11:54;;;;;;;34.15;12.00;;;1.00;99.90;;;-0.76;100.00;100140.34;5013211;28;20026;-81
2022/12/24 01:14:20;;;;;;;40.63;13.13;;;1.00;99.90;;;-0.76;100.00;100145.50;4998313;28;20035;-81
2022/12/24 01:16:46;;;;;;;35.70;11.15;;;0.90;99.90;;;-0.80;100.00;100142.09;5029570;28;20037;-82
2022/12/24 01:19:12;;;;;;;43.40;11.55;;;0.90;99.90;;;-0.80;100.00;100144.66;5010932;28;20109;-81
2022/12/24 01:21:42;;;;;;;44.45;11.35;;;0.90;99.90;;;-0.79;100.00;100151.56;5025437;28;20045;-81
2022/12/24 01:24:14;;;;;;;27.45;11.10;;;0.90;99.90;;;-0.77;100.00;100152.41;4998150;28;20117;-81
2022/12/24 01:26:48;;;;;;;34.35;11.90;;;0.90;99.90;;;-0.75;100.00;100150.69;5014698;28;20040;-81
2022/12/24 01:29:15;;;;;;;37.30;11.07;;;1.00;99.90;;;-0.73;100.00;100156.69;4995585;28;20037;-81
2022/12/24 01:31:41;;;;;;;39.00;12.18;;;1.00;99.90;;;-0.72;100.00;100154.97;5007997;28;20068;-82
2022/12/24 01:34:06;;;;;;;38.80;11.70;;;1.00;99.90;;;-0.68;100.00;100166.97;5012679;28;20030;-82
2022/12/24 01:36:38;;;;;;;38.15;10.95;;;1.00;99.90;;;-0.66;100.00;100170.41;5015237;28;20029;-81
2022/12/24 01:39:04;;;;;;;29.55;10.27;;;1.00;99.90;;;-0.65;100.00;100169.53;5029898;28;20025;-80
2022/12/24 01:44:32;;;;;;;32.28;10.90;;;1.00;99.90;;;-0.66;100.00;100176.44;5028750;28;20065;-81
2022/12/24 01:47:07;;;;;;;30.55;9.85;;;1.00;99.90;;;-0.68;100.00;100178.19;5015567;28;20042;-81
2022/12/24 01:49:35;;;;;;;27.30;9.15;;;1.10;99.90;;;-0.67;100.00;100179.03;5033693;28;20041;-80
2022/12/24 01:52:32;;;;;;;31.10;10.27;;;1.10;99.90;;;-0.62;100.00;100182.44;5015930;28;20029;-81
2022/12/24 01:55:18;;;;;;;30.23;9.50;;;1.10;99.90;;;-0.63;100.00;100179.00;5030312;28;20064;-82
2022/12/24 01:57:58;;;;;;;32.20;9.02;;;1.10;99.90;;;-0.57;100.00;100192.75;5014882;28;20393;-82
2022/12/24 02:00:24;;;;;;;50.90;10.55;;;1.10;99.90;;;-0.55;100.00;100188.41;5019240;28;20064;-81
2022/12/24 02:02:52;;;;;;;27.25;9.57;;;1.10;99.90;;;-0.52;100.00;100186.66;4999596;28;20129;-82
2022/12/24 02:05:33;;;;;;;29.50;8.80;;;1.20;99.90;;;-0.53;100.00;100191.84;4998581;28;20029;-82
2022/12/24 02:08:01;;;;;;;24.50;8.05;;;1.20;99.90;;;-0.52;100.00;100193.53;5013866;28;20034;-81
2022/12/24 02:10:30;;;;;;;29.58;8.65;;;1.20;99.90;;;-0.51;100.00;100196.13;4999416;28;20044;-83
2022/12/24 02:12:58;;;;;;;30.80;9.13;;;1.20;99.90;;;-0.51;100.00;100196.13;5014644;28;20034;-82
2022/12/24 02:15:27;;;;;;;36.40;9.50;;;1.20;99.90;;;-0.51;100.00;100196.13;5016243;28;20528;-81
2022/12/24 02:18:15;;;;;;;26.55;8.70;;;1.20;99.90;;;-0.51;100.00;100195.28;5013772;28;20029;-81
2022/12/24 02:21:18;;;;;;;35.35;12.85;;;1.20;99.90;;;-0.52;100.00;100206.47;5014741;28;20037;-81
2022/12/24 02:24:22;;;;;;;35.45;10.20;;;1.20;99.90;;;-0.49;100.00;100203.88;5033329;28;20033;-82
2022/12/24 02:27:19;;;;;;;24.17;9.63;;;1.20;99.90;;;-0.47;100.00;100204.72;5017898;28;20044;-82
2022/12/24 02:30:15;;;;;;;30.67;9.25;;;1.30;99.90;;;-0.44;100.00;100210.69;5004208;28;20113;-82
2022/12/24 02:33:03;;;;;;;29.25;9.25;;;1.30;99.90;;;-0.40;100.00;100208.94;5026995;28;20037;-81
2022/12/24 02:36:10;;;;;;;27.65;9.23;;;1.30;99.90;;;-0.37;100.00;100206.31;5030956;28;20552;-82
2022/12/24 02:39:18;;;;;;;32.65;9.98;;;1.40;99.90;;;-0.34;100.00;100206.31;5031548;28;20049;-82
2022/12/24 02:42:05;;;;;;;41.83;10.73;;;1.30;99.90;;;-0.32;100.00;100201.13;4970853;28;20586;-80
2022/12/24 02:44:44;;;;;;;34.83;10.52;;;1.40;99.90;;;-0.28;100.00;100207.94;5024928;28;20041;-81
2022/12/24 02:47:12;;;;;;;30.65;12.75;;;1.40;99.90;;;-0.28;100.00;100207.94;5016681;28;20117;-81
2022/12/24 02:49:42;;;;;;;31.50;11.00;;;1.40;99.90;;;-0.26;100.00;100216.56;5016933;28;20022;-82
2022/12/24 02:52:39;;;;;;;40.40;11.75;;;1.40;99.90;;;-0.26;100.00;100217.44;5014544;28;20030;-81
2022/12/24 02:55:07;;;;;;;34.13;11.65;;;1.40;99.90;;;-0.26;100.00;100220.03;5013170;28;20296;-82
2022/12/24 02:58:00;;;;;;;35.22;10.88;;;1.40;99.90;;;-0.23;100.00;100227.75;5011282;28;20042;-80
2022/12/24 03:00:30;;;;;;;28.45;10.05;;;1.50;99.90;;;-0.24;100.00;100223.47;5037616;28;20034;-81
2022/12/24 03:03:34;;;;;;;40.70;11.98;;;1.40;99.90;;;-0.24;100.00;100231.22;4999504;28;20022;-82
2022/12/24 03:06:23;;;;;;;30.13;10.25;;;1.40;99.90;;;-0.26;100.00;100237.25;5029983;28;20104;-82
2022/12/24 03:09:08;;;;;;;38.55;11.15;;;1.40;99.90;;;-0.28;100.00;100232.13;5013828;28;20033;-82
2022/12/24 03:11:42;;;;;;;38.05;10.88;;;1.40;99.90;;;-0.30;100.00;100233.88;5016002;28;20025;-82
2022/12/24 03:14:08;;;;;;;35.97;11.77;;;1.40;99.90;;;-0.31;100.00;100239.03;5016800;28;20087;-82
2022/12/24 03:16:38;;;;;;;36.22;10.73;;;1.40;99.90;;;-0.29;100.00;100240.75;4998236;28;20044;-82
2022/12/24 03:19:04;;;;;;;39.97;11.70;;;1.40;99.90;;;-0.31;100.00;100239.91;5013082;28;20030;-82
2022/12/24 03:21:35;;;;;;;44.50;12.85;;;1.40;99.90;;;-0.29;100.00;100245.91;5010312;28;20069;-81
2022/12/24 03:24:09;;;;;;;40.30;11.98;;;1.40;99.90;;;-0.29;100.00;100242.47;5019129;28;20064;-81
2022/12/24 03:26:39;;;;;;;45.05;12.63;;;1.40;99.90;;;-0.26;100.00;100245.91;5016278;28;20068;-81
2022/12/24 03:29:10;;;;;;;38.78;13.10;;;1.40;99.90;;;-0.23;100.00;100250.19;5013028;28;20029;-82
2022/12/24 03:31:54;;;;;;;41.30;13.23;;;1.50;99.90;;;-0.20;100.00;100250.13;5009661;28;20033;-82
2022/12/24 03:34:20;;;;;;;34.00;12.35;;;1.50;99.90;;;-0.21;100.00;100251.88;5015590;28;20055;-81
2022/12/24 03:36:47;;;;;;;45.05;12.95;;;1.50;99.90;;;-0.19;100.00;100248.41;5016460;28;20041;-82
2022/12/24 03:39:20;;;;;;;49.67;14.20;;;1.50;99.90;;;-0.18;100.00;100255.31;5016220;28;20032;-81
2022/12/24 03:41:46;;;;;;;50.08;13.88;;;1.50;99.90;;;-0.14;100.00;100254.41;5030150;28;20029;-81
2022/12/24 03:44:12;;;;;;;57.75;14.27;;;1.50;99.90;;;-0.14;100.00;100254.41;5029297;28;20033;-81
2022/12/24 03:46:38;;;;;;;41.08;12.68;;;1.50;99.90;;;-0.12;100.00;100253.50;5015661;28;20028;-82
2022/12/24 03:49:04;;;;;;;65.20;15.55;;;1.50;99.90;;;-0.15;100.00;100252.66;5000098;28;20034;-81
2022/12/24 03:51:35;;;;;;;56.88;14.43;;;1.50;99.90;;;-0.11;100.00;100251.78;4999168;28;20038;-81
2022/12/24 03:54:01;;;;;;;45.30;14.13;;;1.60;99.90;;;-0.10;100.00;100253.50;5013590;28;20033;-81
2022/12/24 03:56:27;;;;;;;56.72;15.63;;;1.60;99.90;;;-0.07;100.00;100263.81;5011843;28;20109;-81
2022/12/24 03:58:53;;;;;;;48.92;14.43;;;1.60;99.90;;;-0.06;100.00;100265.53;5017393;28;20406;-81
2022/12/24 04:01:18;;;;;;;54.10;14.75;;;1.60;99.90;;;-0.07;100.00;100264.66;5017675;28;20545;-82
2022/12/24 04:03:53;;;;;;;48.13;14.90;;;1.60;99.90;;;-0.05;100.00;100267.25;5014742;28;20022;-82
2022/12/24 04:06:19;;;;;;;53.08;15.55;;;1.60;99.90;;;-0.05;100.00;100268.09;5018364;28;20033;-81
2022/12/24 04:08:45;;;;;;;55.92;14.98;;;1.60;99.90;;;-0.03;100.00;100268.94;5033015;28;20033;-81
2022/12/24 04:11:22;;;;;;;49.15;14.45;;;1.60;99.90;;;-0.02;100.00;100275.00;5019729;28;20029;-80
2022/12/24 04:13:48;;;;;;;42.83;13.90;;;1.60;99.90;;;-0.05;100.00;100275.84;5001779;28;20027;-81
2022/12/24 04:16:16;;;;;;;49.63;14.05;;;1.60;99.90;;;-0.04;100.00;100274.16;5003304;28;20032;-81
2022/12/24 04:18:50;;;;;;;43.63;13.20;;;1.60;99.90;;;-0.07;100.00;100275.00;5016100;28;20026;-81
2022/12/24 04:21:16;;;;;;;77.15;16.50;;;1.60;99.90;;;-0.09;100.00;100270.72;5017503;28;20029;-81
2022/12/24 04:23:42;;;;;;;36.72;12.55;;;1.60;99.90;;;-0.12;100.00;100270.78;5019411;28;20018;-81
2022/12/24 04:26:15;;;;;;;43.17;13.10;;;1.60;99.90;;;-0.11;100.00;100285.41;5018678;28;20034;-81
2022/12/24 04:28:41;;;;;;;32.10;12.02;;;1.50;99.90;;;-0.11;100.00;100288.88;5018954;28;20029;-81
2022/12/24 04:31:16;;;;;;;42.00;13.35;;;1.50;99.90;;;-0.12;100.00;100291.47;5014782;28;20030;-80
2022/12/24 04:33:45;;;;;;;51.33;13.77;;;1.50;99.90;;;-0.13;100.00;100294.91;5000912;28;20617;-81
2022/12/24 04:36:15;;;;;;;42.30;13.32;;;1.50;99.90;;;-0.14;100.00;100288.91;5003241;28;20487;-80
2022/12/24 04:38:50;;;;;;;44.20;11.90;;;1.50;99.90;;;-0.17;100.00;100288.06;5020321;28;20021;-80
2022/12/24 04:41:29;;;;;;;47.75;12.48;;;1.50;99.90;;;-0.19;100.00;100290.69;5017053;28;20090;-82
2022/12/24 04:43:55;;;;;;;40.35;12.23;;;1.50;99.90;;;-0.21;100.00;100293.28;5014962;28;20026;-81
2022/12/24 04:46:30;;;;;;;37.00;10.95;;;1.50;99.90;;;-0.20;100.00;100301.88;5034371;28;20147;-80
2022/12/24 04:48:56;;;;;;;32.50;9.82;;;1.40;99.90;;;-0.23;100.00;100294.16;5039376;28;20060;-81
2022/12/24 04:51:24;;;;;;;38.53;10.48;;;1.40;99.90;;;-0.24;100.00;100290.72;5017995;28;20036;-80
2022/12/24 04:53:50;;;;;;;31.77;8.70;;;1.40;99.90;;;-0.24;100.00;100298.50;5017136;28;20116;-80
2022/12/24 04:56:27;;;;;;;40.08;10.68;;;1.40;99.90;;;-0.24;100.00;100307.97;5013679;28;20040;-81
2022/12/24 04:58:54;;;;;;;34.05;10.73;;;1.40;99.90;;;-0.24;100.00;100301.09;5001570;28;20069;-80
2022/12/24 05:01:30;;;;;;;26.02;8.75;;;1.40;99.90;;;-0.22;100.00;100301.03;5020715;28;20033;-80
2022/12/24 05:04:05;;;;;;;;;;;;;;;;;;;;;
2022/12/24 05:06:32;;;;;;;27.92;8.30;;;1.40;99.90;;;-0.28;100.00;100312.31;5016356;28;19980;-80
2022/12/24 05:08:59;;;;;;;29.40;9.07;;;1.40;99.90;;;-0.26;100.00;100309.69;5014483;28;20045;-81
2022/12/24 05:11:25;;;;;;;30.50;9.57;;;1.40;99.90;;;-0.23;100.00;100309.69;5017686;28;20029;-80
2022/12/24 05:13:51;;;;;;;30.33;8.60;;;1.40;99.90;;;-0.18;100.00;100309.66;5014684;28;20048;-81
2022/12/24 05:16:24;;;;;;;28.42;8.18;;;1.50;99.90;;;-0.14;100.00;100314.78;5000589;28;20032;-81
2022/12/24 05:18:49;;;;;;;23.52;8.02;;;1.50;99.90;;;-0.11;100.00;100314.75;5031547;28;20502;-82
2022/12/24 05:21:20;;;;;;;28.98;8.15;;;1.50;99.90;;;-0.08;100.00;100325.06;5015414;28;20040;-81
2022/12/24 05:26:53;;;;;;;27.50;8.32;;;1.60;99.90;;;-0.01;100.00;100329.31;5022711;28;20064;-82
2022/12/24 05:29:19;;;;;;;18.00;7.15;;;1.60;99.90;;;0.02;100.00;100336.19;5034358;28;20057;-81
2022/12/24 05:31:50;;;;;;;28.90;8.55;;;1.70;99.90;;;0.07;100.00;100343.94;5010855;28;20517;-81
2022/12/24 05:34:16;;;;;;;24.17;8.18;;;1.70;99.90;;;0.11;100.00;100346.47;5001623;28;20038;-81
2022/12/24 05:36:43;;;;;;;21.17;7.53;;;1.70;99.90;;;0.13;100.00;100354.19;5019360;28;20082;-80
2022/12/24 05:39:18;;;;;;;18.45;6.72;;;1.80;99.90;;;0.13;100.00;100347.31;5018102;28;20107;-82
2022/12/24 05:41:47;;;;;;;24.02;7.03;;;1.70;99.90;;;0.13;100.00;100347.31;4999020;28;20048;-80
2022/12/24 05:44:14;;;;;;;23.75;6.75;;;1.80;99.90;;;0.17;100.00;100355.88;5015696;28;20030;-80
2022/12/24 05:46:48;;;;;;;17.10;6.85;;;1.80;99.90;;;0.18;100.00;100355.88;5016234;28;20100;-80
2022/12/24 05:49:14;;;;;;;22.20;7.93;;;1.80;99.90;;;0.17;100.00;100353.31;5021084;28;20417;-80
2022/12/24 05:51:40;;;;;;;17.15;6.93;;;1.80;99.90;;;0.15;100.00;100362.81;5016041;28;20043;-81
2022/12/24 05:54:06;;;;;;;18.10;6.90;;;1.80;99.90;;;0.15;100.00;100383.53;5015291;28;20060;-80
2022/12/24 05:56:32;;;;;;;19.15;6.60;;;1.80;99.90;;;0.14;100.00;100379.25;5031775;28;20041;-81
2022/12/24 05:59:00;;;;;;;25.10;6.85;;;1.80;99.90;;;0.15;100.00;100383.53;5021092;28;20048;-81
2022/12/24 06:01:26;;;;;;;25.38;7.68;;;1.80;99.90;;;0.17;100.00;100393.03;5018284;28;20037;-81
2022/12/24 06:03:52;;;;;;;14.50;7.10;;;1.80;99.90;;;0.15;100.00;100389.59;4999973;28;20049;-81
2022/12/24 06:06:24;;;;;;;26.35;7.63;;;1.70;99.90;;;0.10;100.00;100388.75;5015289;28;20041;-82
2022/12/24 06:08:53;;;;;;;18.08;6.35;;;1.80;99.90;;;0.09;100.00;100389.63;4999865;28;20022;-81
2022/12/24 06:11:24;;;;;;;18.63;6.80;;;1.70;99.90;;;0.07;100.00;100396.56;5019922;28;20738;-82
2022/12/24 06:13:52;;;;;;;16.55;5.70;;;1.70;99.90;;;0.05;100.00;100398.31;5008660;28;20029;-81
2022/12/24 06:16:24;;;;;;;24.45;7.13;;;1.70;99.90;;;0.05;100.00;100400.88;5014636;28;20025;-81
2022/12/24 06:18:51;;;;;;;17.55;6.57;;;1.70;99.90;;;0.08;100.00;100394.81;5014465;28;20026;-80
2022/12/24 06:21:17;;;;;;;19.85;6.80;;;1.70;99.90;;;0.06;100.00;100397.41;4998775;28;20129;-82
2022/12/24 06:23:51;;;;;;;23.63;7.50;;;1.70;99.90;;;0.02;100.00;100406.06;5028913;23;20042;-82
2022/12/24 06:26:20;;;;;;;15.20;6.22;;;1.70;99.90;;;0.03;100.00;100410.41;4998478;28;20026;-81
2022/12/24 06:28:48;;;;;;;20.10;6.75;;;1.70;99.90;;;0.00;100.00;100415.63;5012061;28;20038;-83
2022/12/24 06:31:20;;;;;;;21.70;5.82;;;1.60;99.90;;;-0.01;100.00;100414.72;4994380;28;20018;-82
2022/12/24 06:33:49;;;;;;;20.58;6.68;;;1.60;99.90;;;-0.06;100.00;100405.31;5001865;28;20507;-82
2022/12/24 06:36:24;;;;;;;16.92;6.25;;;1.60;99.90;;;-0.09;100.00;100407.91;4993191;28;20123;-82
2022/12/24 06:38:51;;;;;;;17.67;6.35;;;1.60;99.90;;;-0.07;100.00;100414.78;5001247;28;20121;-82
2022/12/24 06:41:18;;;;;;;14.70;6.00;;;1.60;99.90;;;-0.06;100.00;100421.69;5010947;28;20034;-82
2022/12/24 06:43:48;;;;;;;12.48;5.95;;;1.60;99.90;;;-0.04;100.00;100426.88;5027186;28;20097;-82
2022/12/24 06:46:15;;;;;;;14.93;5.57;;;1.60;99.90;;;-0.08;100.00;100433.78;4992888;28;20057;-82
2022/12/24 06:48:43;;;;;;;19.88;6.32;;;1.60;99.90;;;-0.05;100.00;100428.56;5003213;28;20030;-82
2022/12/24 06:51:09;;;;;;;11.73;5.53;;;1.60;99.90;;;-0.06;100.00;100441.53;4990558;28;20089;-81
2022/12/24 06:53:35;;;;;;;13.52;5.10;;;1.60;99.90;;;-0.05;100.00;100443.25;5011141;28;20105;-81
2022/12/24 06:56:09;;;;;;;15.35;5.18;;;1.60;99.90;;;-0.05;100.00;100454.47;5026049;28;20026;-82
2022/12/24 06:58:35;;;;;;;12.52;5.07;;;1.60;99.90;;;-0.02;100.00;100462.22;5010940;28;20031;-82
2022/12/24 07:01:04;;;;;;;17.60;5.47;;;1.60;99.90;;;0.01;100.00;100468.25;5006513;28;20026;-82
2022/12/24 07:03:31;;;;;;;14.50;5.07;;;1.60;99.90;;;0.01;100.00;100469.09;4999043;28;20037;-82
2022/12/24 07:05:57;;;;;;;13.55;5.20;;;1.70;99.90;;;0.02;100.00;100488.06;4992409;28;20034;-82
2022/12/24 07:08:23;;;;;;;11.82;5.32;;;1.70;99.90;;;0.03;100.00;100497.56;5000452;28;20073;-82
2022/12/24 07:10:50;;;;;;;12.20;5.10;;;1.70;99.90;;;0.06;100.00;100500.13;4995747;28;20085;-81
2022/12/24 07:13:17;;;;;;;13.65;5.28;;;1.70;99.90;;;0.04;100.00;100496.69;5023245;28;20470;-81
2022/12/24 07:15:43;;;;;;;14.57;5.78;;;1.70;99.90;;;0.01;100.00;100494.97;5000302;28;20491;-82
2022/12/24 07:18:15;;;;;;;13.73;5.40;;;1.60;99.90;;;-0.01;100.00;100492.38;5013120;28;20034;-83
2022/12/24 07:20:42;;;;;;;19.90;5.30;;;1.70;99.90;;;0.01;100.00;100497.56;4993768;28;20022;-82
2022/12/24 07:23:07;;;;;;;11.48;5.10;;;1.70;99.90;;;0.02;100.00;100496.69;4991285;28;20042;-83
2022/12/24 07:25:33;;;;;;;14.55;5.35;;;1.70;99.90;;;0.05;100.00;100504.44;5027858;28;20104;-82
2022/12/24 07:27:59;;;;;;;11.80;5.38;;;1.70;99.90;;;0.06;100.00;100506.16;4997522;28;20168;-83
2022/12/24 07:30:29;;;;;;;13.88;4.68;;;1.70;99.90;;;0.06;100.00;100498.38;5013728;28;20025;-82
2022/12/24 07:32:55;;;;;;;14.10;5.05;;;1.70;99.90;;;0.07;100.00;100499.25;4991812;28;20030;-82
2022/12/24 07:35:21;;;;;;;13.57;5.10;;;1.70;99.90;;;0.09;100.00;100502.69;5005741;28;20029;-81
2022/12/24 07:37:46;;;;;;;13.38;4.50;;;1.70;99.90;;;0.11;100.00;100495.75;5007607;28;20064;-82
2022/12/24 07:40:12;;;;;;;12.23;5.22;;;1.80;99.90;;;0.14;100.00;100503.53;4992582;28;20057;-82
2022/12/24 07:42:38;;;;;;;13.13;5.50;;;1.80;99.90;;;0.19;100.00;100489.69;5006592;28;20030;-82
2022/12/24 07:45:05;;;;;;;12.68;4.57;;;1.90;99.90;;;0.27;100.00;100504.28;5022254;28;20026;-81
2022/12/24 07:47:36;;;;;;;14.25;4.82;;;1.90;99.90;;;0.31;100.00;100498.22;5016620;28;20018;-83
2022/12/24 07:50:04;;;;;;;10.10;4.65;;;1.90;99.90;;;0.35;100.00;100498.16;5001281;28;20093;-82
2022/12/24 07:52:30;;;;;;;13.05;5.43;;;2.00;99.90;;;0.37;100.00;100504.19;5010655;28;20117;-81
2022/12/24 07:54:56;;;;;;;17.73;5.32;;;2.00;99.90;;;0.42;100.00;100503.31;4999131;28;20089;-80
2022/12/24 07:57:22;;;;;;;10.73;4.00;;;2.00;99.90;;;0.46;100.00;100507.59;5006762;28;20022;-82
2022/12/24 07:59:47;;;;;;;8.82;3.50;;;2.10;99.90;;;0.48;100.00;100506.69;5011935;28;20052;-82
2022/12/24 08:02:13;;;;;;;11.27;3.40;;;2.10;99.90;;;0.52;100.00;100507.50;4990106;28;20126;-82
2022/12/24 08:04:39;;;;;;;8.27;3.35;;;2.20;99.90;;;0.55;100.00;100504.91;5009250;28;20045;-81
2022/12/24 08:07:06;;;;;;;12.05;3.60;;;2.20;99.90;;;0.61;100.00;100516.06;4997479;28;20022;-81
2022/12/24 08:09:43;;;;;;;11.27;4.03;;;2.20;99.90;;;0.63;100.00;100513.47;5027580;28;20453;-82
2022/12/24 08:12:08;;;;;;;8.75;2.47;;;2.20;99.90;;;0.59;100.00;100517.81;5002289;28;20035;-81
2022/12/24 08:14:34;;;;;;;5.00;1.95;;;2.30;99.90;;;0.61;100.00;100507.44;5012802;28;20040;-82
2022/12/24 08:17:00;;;;;;;6.72;2.63;;;2.30;99.90;;;0.74;100.00;100503.00;4996884;28;20510;-82
2022/12/24 08:19:54;;;;;;;7.10;2.70;;;2.30;99.90;;;0.79;100.00;100511.59;5001738;28;20465;-81
2022/12/24 08:22:19;;;;;;;9.02;2.10;;;2.40;99.90;;;0.82;100.00;100516.72;5017461;28;20034;-82
2022/12/24 08:24:45;;;;;;;7.22;1.90;;;2.40;99.90;;;0.79;100.00;100529.72;5002829;28;20057;-81
2022/12/24 08:27:19;;;;;;;5.45;2.35;;;2.50;99.90;;;0.88;100.00;100529.63;4991379;28;20030;-81
2022/12/24 08:29:45;;;;;;;6.85;1.55;;;2.50;99.90;;;0.96;100.00;100533.00;4991173;28;20570;-81
2022/12/24 08:32:11;;;;;;;9.45;2.65;;;2.60;99.90;;;1.01;100.00;100538.16;4990161;28;20040;-81
2022/12/24 08:34:36;;;;;;;3.65;1.50;;;2.60;99.90;;;1.03;100.00;100529.47;4986939;28;20505;-78
2022/12/24 08:37:02;;;;;;;4.75;1.58;;;2.60;99.90;;;1.08;100.00;100529.44;4990006;28;20044;-79
2022/12/24 08:39:28;;;;;;;6.28;1.90;;;2.70;99.90;;;1.12;100.00;100525.91;5011026;28;20106;-80
2022/12/24 08:41:58;;;;;;;3.75;1.10;;;2.70;99.90;;;1.15;100.00;100536.28;5004938;28;20378;-81
2022/12/24 08:44:24;;;;;;;7.10;1.40;;;2.80;99.90;;;1.21;100.00;100536.22;5028394;28;20036;-80
2022/12/24 08:46:50;;;;;;;7.03;2.33;;;2.80;99.90;;;1.29;100.00;100546.50;5015225;28;20022;-81
2022/12/24 08:49:16;;;;;;;8.77;3.92;;;2.90;99.90;;;1.32;100.00;100549.06;5009563;28;20050;-81
2022/12/24 08:51:41;;;;;;;4.78;2.13;;;2.90;99.90;;;1.39;100.00;100549.84;5015524;28;20069;-81
2022/12/24 08:54:10;;;;;;;6.70;3.20;;;3.00;99.90;;;1.48;100.00;100552.31;5004613;28;20113;-82
2022/12/24 08:56:38;;;;;;;6.50;2.20;;;3.00;99.90;;;1.58;100.00;100553.09;5028236;28;20053;-81
2022/12/24 08:59:04;;;;;;;6.53;2.33;;;3.10;99.90;;;1.61;100.00;100571.19;5015441;28;20045;-81
2022/12/24 09:01:30;;;;;;;18.73;10.65;;;3.10;99.90;;;1.66;100.00;100577.19;5013329;28;20389;-82
2022/12/24 09:03:56;;;;;;;13.30;8.20;;;3.20;99.90;;;1.72;100.00;100574.53;4997573;28;20034;-81
2022/12/24 09:06:22;;;;;;;12.45;5.30;;;3.20;99.90;;;1.74;100.00;100580.56;4989690;28;20137;-81
2022/12/24 09:08:53;;;;;;;9.98;2.20;;;3.30;99.90;;;1.81;100.00;100584.81;5005142;28;20058;-81
2022/12/24 09:11:22;;;;;;;5.80;1.60;;;3.30;99.90;;;1.87;100.00;100588.19;5005437;28;20026;-82
2022/12/24 09:13:48;;;;;;;10.45;6.30;;;3.40;99.90;;;1.92;100.00;100586.38;5006436;28;20061;-81
2022/12/24 09:16:14;;;;;;;5.70;3.00;;;3.40;99.90;;;1.95;100.00;100586.34;4989933;28;20034;-81
2022/12/24 09:18:41;;;;;;;9.70;2.80;;;3.50;99.90;;;1.98;100.00;100578.50;5005656;28;20110;-81
2022/12/24 09:21:13;;;;;;;5.07;1.75;;;3.50;99.90;;;2.00;100.00;100584.56;5012301;28;20034;-81
2022/12/24 09:23:41;;;;;;;7.63;2.70;;;3.50;99.90;;;2.08;100.00;100587.91;5003883;28;20042;-81
2022/12/24 09:26:35;;;;;;;5.97;1.90;;;3.60;99.90;;;2.06;100.00;100600.06;5004723;28;20034;-82
2022/12/24 09:29:01;;;;;;;3.63;0.93;;;3.60;99.90;;;2.05;100.00;100595.72;4977794;28;20705;-80
2022/12/24 09:31:27;;;;;;;9.00;1.52;;;3.60;99.90;;;2.13;100.00;100593.03;5006979;28;20026;-80
2022/12/24 09:33:54;;;;;;;4.55;1.00;;;3.70;99.90;;;2.25;100.00;100585.94;5007256;28;20065;-80
2022/12/24 09:36:23;;;;;;;7.85;1.30;;;3.80;99.90;;;2.36;100.00;100592.72;4991134;28;20663;-81
2022/12/24 09:38:52;;;;;;;3.60;1.10;;;3.80;99.90;;;2.43;100.00;100605.56;5004504;28;20085;-82
2022/12/24 09:41:59;;;;;;;6.18;1.20;;;3.90;99.90;;;2.48;100.00;100613.28;5002018;28;20043;-82
2022/12/24 09:44:53;;;;;;;7.70;2.00;;;3.90;99.90;;;2.40;100.00;100618.63;5009394;28;20032;-83
2022/12/24 09:47:48;;;;;;;4.97;1.70;;;3.90;99.90;;;2.43;100.00;100618.56;4998994;28;20051;-83
2022/12/24 09:50:53;;;;;;;6.55;2.00;;;3.90;99.90;;;2.45;100.00;100623.75;5008682;28;20581;-82
2022/12/24 09:53:59;;;;;;;9.48;1.70;;;3.90;99.90;;;2.44;100.00;100627.22;5005649;28;20506;-83
2022/12/24 09:56:43;;;;;;;5.78;2.10;;;3.90;99.90;;;2.42;100.00;100619.47;5006874;28;20049;-83
2022/12/24 09:59:21;;;;;;;4.70;2.22;;;3.90;99.90;;;2.42;100.00;100624.66;5011674;28;20129;-82
2022/12/24 10:01:54;;;;;;;7.72;2.55;;;4.00;99.90;;;2.45;100.00;100618.56;5007451;28;20041;-82
2022/12/24 10:04:26;;;;;;;10.77;2.95;;;4.00;99.90;;;2.52;100.00;100624.50;4991448;28;20554;-81
2022/12/24 10:07:30;;;;;;;7.45;2.90;;;4.00;99.90;;;2.58;100.00;100637.41;4995736;28;20318;-81
2022/12/24 10:10:45;;;;;;;7.50;2.15;;;4.10;99.90;;;2.56;100.00;100636.59;4989110;28;20553;-81
2022/12/24 10:13:51;;;;;;;8.23;3.17;;;4.10;99.90;;;2.59;100.00;100637.41;5023310;28;20473;-79
2022/12/24 10:17:11;;;;;;;8.52;3.85;;;4.10;99.90;;;2.57;100.00;100628.78;5031523;28;20033;-79
2022/12/24 10:19:59;;;;;;;6.45;1.88;;;4.10;99.90;;;2.65;100.00;100626.03;4981415;28;20045;-81
2022/12/24 10:23:17;;;;;;;5.07;2.35;;;4.10;99.90;;;2.51;100.00;100641.84;4997515;28;20526;-79
2022/12/24 10:26:07;;;;;;;6.00;2.20;;;4.10;99.90;;;2.58;100.00;100651.28;5010760;28;20128;-77
2022/12/24 10:29:05;;;;;;;14.52;9.80;;;4.10;99.90;;;2.56;100.00;100657.38;5017099;28;20068;-82
2022/12/24 10:32:03;;;;;;;8.18;2.13;;;4.10;99.90;;;2.53;100.00;100660.88;4996806;28;20060;-80
2022/12/24 10:34:52;;;;;;;10.88;3.35;;;4.10;99.90;;;2.67;100.00;100650.28;4999851;28;20062;-79
2022/12/24 10:37:31;;;;;;;3.90;1.83;;;4.20;99.90;;;2.73;100.00;100660.59;5007053;28;20097;-79
2022/12/24 10:40:02;;;;;;;4.60;1.60;;;4.30;99.90;;;2.85;99.73;100655.19;5013927;28;20485;-78